Time,TemperatureF,DewpointF,PressureIn,WindDirection,WindDirectionDegrees,WindSpeedMPH,WindSpeedGustMPH,Humidity,HourlyPrecipIn,Conditions,Clouds,dailyrainin,SoftwareType,DateUTC
2013-01-29 00:01:00,15.0,15.0,-100.00,SSE,157,4.0,8.0,98,0.24,,,-99.99,,2013-01-29 07:01:00,
2013-01-29 00:11:00,15.0,15.0,-100.00,SSE,168,3.0,5.0,98,0.08,,,-99.99,,2013-01-29 07:11:00,
2013-01-29 00:21:00,15.0,15.0,-100.00,SSE,167,2.0,5.0,98,0.08,,,-99.99,,2013-01-29 07:21:00,
2013-01-29 00:31:00,15.0,15.0,-100.00,SSE,167,2.0,5.0,98,0.08,,,-99.99,,2013-01-29 07:31:00,
2013-01-29 00:41:00,15.0,15.0,-100.00,South,174,2.0,3.0,98,0.08,,,-99.99,,2013-01-29 07:41:00,
2013-01-29 00:52:00,15.0,15.0,-100.00,SSE,161,2.0,5.0,98,0.08,,,-99.99,,2013-01-29 07:52:00,
2013-01-29 01:01:00,15.0,15.0,-100.00,SSE,161,2.0,5.0,98,0.08,,,-99.99,,2013-01-29 08:01:00,
2013-01-29 01:11:00,15.0,15.0,-100.00,SSE,167,3.0,5.0,98,0.08,,,-99.99,,2013-01-29 08:11:00,
2013-01-29 01:21:00,15.0,15.0,-100.00,SSE,167,3.0,5.0,98,0.08,,,-99.99,,2013-01-29 08:21:00,
2013-01-29 01:31:00,15.0,15.0,-100.00,SSE,167,3.0,5.0,98,0.08,,,-99.99,,2013-01-29 08:31:00,
2013-01-29 01:41:00,15.0,15.0,-100.00,SSE,160,3.0,5.0,98,0.04,,,-99.99,,2013-01-29 08:41:00,
2013-01-29 01:52:00,15.0,15.0,-100.00,SSE,157,4.0,7.0,98,0.08,,,-99.99,,2013-01-29 08:52:00,
2013-01-29 02:01:00,15.0,15.0,-100.00,SSE,157,4.0,7.0,98,0.08,,,-99.99,,2013-01-29 09:01:00,
2013-01-29 02:11:00,15.0,15.0,-100.00,SSE,160,3.0,4.0,98,0.04,,,-99.99,,2013-01-29 09:11:00,
2013-01-29 02:21:00,15.0,15.0,-100.00,South,172,4.0,6.0,98,0.12,,,-99.99,,2013-01-29 09:21:00,
2013-01-29 02:31:00,15.0,15.0,-100.00,South,172,4.0,6.0,98,0.12,,,-99.99,,2013-01-29 09:31:00,
2013-01-29 02:42:00,15.0,15.0,-100.00,South,174,3.0,6.0,98,0.04,,,-99.99,,2013-01-29 09:42:00,
2013-01-29 02:52:00,15.0,15.0,-100.00,South,174,3.0,6.0,98,0.04,,,-99.99,,2013-01-29 09:52:00,
2013-01-29 03:01:00,15.0,15.0,-100.00,South,174,3.0,6.0,98,0.04,,,-99.99,,2013-01-29 10:01:00,
2013-01-29 03:11:00,15.0,15.0,-100.00,South,174,2.0,6.0,98,0.00,,,-99.99,,2013-01-29 10:11:00,
2013-01-29 03:21:00,15.0,15.0,-100.00,SSE,162,3.0,4.0,98,0.04,,,-99.99,,2013-01-29 10:21:00,
2013-01-29 03:32:00,15.0,15.0,-100.00,SSE,162,3.0,4.0,98,0.04,,,-99.99,,2013-01-29 10:32:00,
2013-01-29 03:41:00,15.0,15.0,-100.00,SSE,157,3.0,4.0,98,0.04,,,-99.99,,2013-01-29 10:41:00,
2013-01-29 03:52:00,15.0,15.0,-100.00,SSE,160,3.0,4.0,98,0.04,,,-99.99,,2013-01-29 10:52:00,
2013-01-29 04:01:00,15.0,15.0,-100.00,SSE,160,3.0,4.0,98,0.04,,,-99.99,,2013-01-29 11:01:00,
2013-01-29 04:11:00,15.0,15.0,-100.00,SSE,148,3.0,4.0,98,0.00,,,-99.99,,2013-01-29 11:11:00,
2013-01-29 04:21:00,15.0,15.0,-100.00,SE,128,4.0,6.0,98,0.00,,,-99.99,,2013-01-29 11:21:00,
2013-01-29 04:31:00,15.0,15.0,-100.00,SE,128,4.0,6.0,98,0.00,,,-99.99,,2013-01-29 11:31:00,
2013-01-29 04:42:00,15.0,15.0,-100.00,ESE,119,4.0,5.0,98,0.00,,,-99.99,,2013-01-29 11:42:00,
2013-01-29 04:52:00,15.0,15.0,-100.00,SE,124,3.0,4.0,98,0.04,,,-99.99,,2013-01-29 11:52:00,
2013-01-29 05:02:00,15.0,15.0,-100.00,SE,124,3.0,4.0,98,0.04,,,-99.99,,2013-01-29 12:02:00,
2013-01-29 05:12:00,15.0,15.0,-100.00,SE,124,3.0,4.0,98,0.04,,,-99.99,,2013-01-29 12:12:00,
2013-01-29 05:22:00,15.0,15.0,-100.00,ESE,119,4.0,5.0,98,0.04,,,-99.99,,2013-01-29 12:22:00,
2013-01-29 05:32:00,15.0,15.0,-100.00,ESE,119,4.0,5.0,98,0.04,,,-99.99,,2013-01-29 12:32:00,
2013-01-29 05:42:00,15.0,15.0,-100.00,ESE,114,4.0,4.0,98,0.04,,,-99.99,,2013-01-29 12:42:00,
2013-01-29 05:52:00,15.0,15.0,-100.00,ESE,104,3.0,4.0,98,0.04,,,-99.99,,2013-01-29 12:52:00,
2013-01-29 06:01:00,15.0,15.0,-100.00,ESE,104,3.0,4.0,98,0.04,,,-99.99,,2013-01-29 13:01:00,
2013-01-29 06:11:00,15.0,15.0,-100.00,ESE,119,3.0,4.0,98,0.04,,,-99.99,,2013-01-29 13:11:00,
2013-01-29 06:22:00,15.0,15.0,-100.00,SE,127,2.0,3.0,98,0.08,,,-99.99,,2013-01-29 13:22:00,
2013-01-29 06:32:00,15.0,15.0,-100.00,SE,127,2.0,3.0,98,0.08,,,-99.99,,2013-01-29 13:32:00,
2013-01-29 06:42:00,15.0,15.0,-100.00,ESE,123,2.0,3.0,98,0.04,,,-99.99,,2013-01-29 13:42:00,
2013-01-29 06:52:00,15.0,15.0,-100.00,SE,124,3.0,3.0,98,0.00,,,-99.99,,2013-01-29 13:52:00,
2013-01-29 07:00:00,15.0,15.0,-100.00,ESE,106,2.0,3.0,98,0.00,,,-99.99,,2013-01-29 14:00:00,
2013-01-29 07:02:00,15.0,15.0,-100.00,SE,124,3.0,3.0,98,0.00,,,-99.99,,2013-01-29 14:02:00,
2013-01-29 07:12:00,15.0,15.0,-100.00,SE,140,2.0,3.0,98,0.00,,,-99.99,,2013-01-29 14:12:00,
2013-01-29 07:21:00,15.0,15.0,-100.00,ESE,114,3.0,3.0,98,0.04,,,-99.99,,2013-01-29 14:21:00,
2013-01-29 07:32:00,15.0,15.0,-100.00,ESE,114,3.0,3.0,98,0.04,,,-99.99,,2013-01-29 14:32:00,
2013-01-29 07:43:00,15.0,15.0,-100.00,ESE,106,2.0,3.0,98,0.00,,,-99.99,,2013-01-29 14:43:00,
2013-01-29 07:52:00,15.0,15.0,-100.00,ESE,106,2.0,3.0,98,0.00,,,-99.99,,2013-01-29 14:52:00,
2013-01-29 08:12:00,15.0,15.0,-100.00,ESE,113,1.0,2.0,98,0.00,,,-99.99,,2013-01-29 15:12:00,
2013-01-29 08:22:00,15.0,15.0,-100.00,East,89,1.0,2.0,98,0.00,,,-99.99,,2013-01-29 15:22:00,
2013-01-29 08:32:00,15.0,15.0,-100.00,East,89,1.0,2.0,98,0.00,,,-99.99,,2013-01-29 15:32:00,
2013-01-29 08:42:00,15.0,15.0,-100.00,SE,128,2.0,2.0,98,0.08,,,-99.99,,2013-01-29 15:42:00,
2013-01-29 08:53:00,15.0,15.0,-100.00,SE,133,1.0,3.0,98,0.04,,,-99.99,,2013-01-29 15:53:00,
2013-01-29 09:02:00,15.0,15.0,-100.00,SE,133,1.0,3.0,98,0.04,,,-99.99,,2013-01-29 16:02:00,
2013-01-29 09:12:00,15.0,15.0,-100.00,NNW,333,2.0,2.0,98,0.04,,,-99.99,,2013-01-29 16:12:00,
2013-01-29 09:22:00,16.0,15.0,-100.00,NW,322,2.0,3.0,98,0.04,,,-99.99,,2013-01-29 16:22:00,
2013-01-29 09:32:00,16.0,15.0,-100.00,NW,322,2.0,3.0,98,0.04,,,-99.99,,2013-01-29 16:32:00,
2013-01-29 09:42:00,16.0,15.0,-100.00,NW,322,2.0,3.0,98,0.04,,,-99.99,,2013-01-29 16:42:00,
2013-01-29 09:53:00,17.0,16.0,-100.00,NW,304,1.0,2.0,98,0.00,,,-99.99,,2013-01-29 16:53:00,
2013-01-29 10:03:00,17.0,16.0,-100.00,NW,304,1.0,2.0,98,0.00,,,-99.99,,2013-01-29 17:03:00,
2013-01-29 10:12:00,17.0,16.0,-100.00,NNW,337,3.0,4.0,98,0.00,,,-99.99,,2013-01-29 17:12:00,
2013-01-29 10:21:00,17.0,17.0,-100.00,NNW,328,3.0,4.0,98,0.04,,,-99.99,,2013-01-29 17:21:00,
2013-01-29 10:32:00,17.0,17.0,-100.00,NNW,328,3.0,4.0,98,0.04,,,-99.99,,2013-01-29 17:32:00,
2013-01-29 10:42:00,18.0,17.0,-100.00,NW,319,2.0,3.0,99,0.00,,,-99.99,,2013-01-29 17:42:00,
2013-01-29 10:52:00,18.0,18.0,-100.00,NW,320,3.0,4.0,98,0.08,,,-99.99,,2013-01-29 17:52:00,
2013-01-29 11:03:00,18.0,18.0,-100.00,NW,320,3.0,4.0,98,0.08,,,-99.99,,2013-01-29 18:03:00,
2013-01-29 11:12:00,20.0,20.0,-100.00,NW,326,1.0,2.0,100,0.00,,,-99.99,,2013-01-29 18:12:00,
2013-01-29 11:22:00,20.0,20.0,-100.00,WNW,298,3.0,7.0,98,0.00,,,-99.99,,2013-01-29 18:22:00,
2013-01-29 11:33:00,20.0,20.0,-100.00,WNW,298,3.0,7.0,98,0.00,,,-99.99,,2013-01-29 18:33:00,
2013-01-29 11:42:00,20.0,20.0,-100.00,NNW,336,4.0,6.0,99,0.00,,,-99.99,,2013-01-29 18:42:00,
2013-01-29 11:52:00,19.0,19.0,-100.00,NNW,329,8.0,10.0,98,0.00,,,-99.99,,2013-01-29 18:52:00,
2013-01-29 12:02:00,19.0,19.0,-100.00,NNW,329,8.0,10.0,98,0.00,,,-99.99,,2013-01-29 19:02:00,
2013-01-29 12:11:00,19.0,18.0,-100.00,NNW,333,6.0,7.0,99,0.04,,,-99.99,,2013-01-29 19:11:00,
2013-01-29 12:22:00,19.0,19.0,-100.00,NNW,336,6.0,9.0,99,0.00,,,-99.99,,2013-01-29 19:22:00,
2013-01-29 12:32:00,19.0,19.0,-100.00,NNW,336,6.0,9.0,99,0.00,,,-99.99,,2013-01-29 19:32:00,
2013-01-29 12:42:00,19.0,19.0,-100.00,NNW,339,6.0,9.0,99,0.00,,,-99.99,,2013-01-29 19:42:00,
2013-01-29 12:52:00,20.0,20.0,-100.00,NNW,333,7.0,9.0,99,0.00,,,-99.99,,2013-01-29 19:52:00,
2013-01-29 13:02:00,20.0,20.0,-100.00,NNW,333,7.0,9.0,99,0.00,,,-99.99,,2013-01-29 20:02:00,
2013-01-29 13:12:00,18.0,17.0,-100.00,NW,316,8.0,10.0,99,0.08,,,-99.99,,2013-01-29 20:12:00,
2013-01-29 13:22:00,18.0,17.0,-100.00,NW,316,8.0,10.0,99,0.08,,,-99.99,,2013-01-29 20:22:00,
2013-01-29 13:33:00,18.0,17.0,-100.00,NW,316,8.0,10.0,99,0.08,,,-99.99,,2013-01-29 20:33:00,
2013-01-29 13:42:00,19.0,19.0,-100.00,NNW,330,8.0,10.0,99,0.16,,,-99.99,,2013-01-29 20:42:00,
2013-01-29 13:53:00,19.0,19.0,-100.00,NNW,336,7.0,10.0,98,0.16,,,-99.99,,2013-01-29 20:53:00,
2013-01-29 14:02:00,19.0,19.0,-100.00,NNW,336,7.0,10.0,98,0.16,,,-99.99,,2013-01-29 21:02:00,
2013-01-29 14:12:00,18.0,18.0,-100.00,NNW,329,9.0,14.0,98,0.24,,,-99.99,,2013-01-29 21:12:00,
2013-01-29 14:22:00,18.0,18.0,-100.00,NW,322,8.0,13.0,98,0.08,,,-99.99,,2013-01-29 21:22:00,
2013-01-29 14:33:00,18.0,18.0,-100.00,NW,322,8.0,13.0,98,0.08,,,-99.99,,2013-01-29 21:33:00,
2013-01-29 14:42:00,18.0,18.0,-100.00,NNW,335,9.0,11.0,98,0.16,,,-99.99,,2013-01-29 21:42:00,
2013-01-29 14:53:00,18.0,18.0,-100.00,NW,316,7.0,10.0,98,0.08,,,-99.99,,2013-01-29 21:53:00,
2013-01-29 15:02:00,18.0,18.0,-100.00,NW,316,7.0,10.0,98,0.08,,,-99.99,,2013-01-29 22:02:00,
2013-01-29 15:12:00,19.0,18.0,-100.00,NNW,332,6.0,8.0,98,0.04,,,-99.99,,2013-01-29 22:12:00,
2013-01-29 15:21:00,19.0,18.0,-100.00,NW,318,7.0,12.0,98,0.04,,,-99.99,,2013-01-29 22:21:00,
2013-01-29 15:32:00,19.0,18.0,-100.00,NW,318,7.0,12.0,98,0.04,,,-99.99,,2013-01-29 22:32:00,
2013-01-29 15:42:00,19.0,18.0,-100.00,NNW,337,8.0,10.0,98,0.12,,,-99.99,,2013-01-29 22:42:00,
2013-01-29 15:53:00,18.0,18.0,-100.00,NNW,329,6.0,8.0,98,0.12,,,-99.99,,2013-01-29 22:53:00,
2013-01-29 16:02:00,18.0,18.0,-100.00,NNW,329,6.0,8.0,98,0.12,,,-99.99,,2013-01-29 23:02:00,
2013-01-29 16:11:00,19.0,19.0,-100.00,NNW,329,4.0,6.0,99,0.08,,,-99.99,,2013-01-29 23:11:00,
2013-01-29 16:22:00,20.0,19.0,-100.00,NNW,329,6.0,9.0,98,0.04,,,-99.99,,2013-01-29 23:22:00,
2013-01-29 16:30:00,18.0,17.0,-100.00,NW,319,6.0,10.0,98,0.00,,,-99.99,,2013-01-29 23:30:00,
2013-01-29 16:32:00,20.0,19.0,-100.00,NNW,329,6.0,9.0,98,0.04,,,-99.99,,2013-01-29 23:32:00,
2013-01-29 16:42:00,19.0,19.0,-100.00,WNW,302,5.0,8.0,98,0.04,,,-99.99,,2013-01-29 23:42:00,
2013-01-29 16:53:00,19.0,18.0,-100.00,NNW,336,10.0,14.0,97,0.04,,,-99.99,,2013-01-29 23:53:00,
2013-01-29 17:02:00,19.0,18.0,-100.00,NNW,336,10.0,14.0,97,0.04,,,-99.99,,2013-01-30 00:02:00,
2013-01-29 17:11:00,18.0,17.0,-100.00,NW,319,6.0,10.0,98,0.00,,,-99.99,,2013-01-30 00:11:00,
2013-01-29 17:22:00,18.0,17.0,-100.00,NW,319,6.0,10.0,98,0.00,,,-99.99,,2013-01-30 00:22:00,
2013-01-29 17:43:00,17.0,17.0,-100.00,NW,308,7.0,9.0,98,0.00,,,-99.99,,2013-01-30 00:43:00,
2013-01-29 17:53:00,17.0,17.0,-100.00,NW,326,5.0,7.0,98,0.00,,,-99.99,,2013-01-30 00:53:00,
2013-01-29 18:01:00,17.0,17.0,-100.00,NW,326,5.0,7.0,98,0.00,,,-99.99,,2013-01-30 01:01:00,
2013-01-29 18:11:00,17.0,17.0,-100.00,NNW,347,8.0,11.0,98,0.04,,,-99.99,,2013-01-30 01:11:00,
2013-01-29 18:22:00,17.0,17.0,-100.00,NW,312,4.0,8.0,98,0.00,,,-99.99,,2013-01-30 01:22:00,
2013-01-29 18:32:00,17.0,17.0,-100.00,NW,312,4.0,8.0,98,0.00,,,-99.99,,2013-01-30 01:32:00,
2013-01-29 18:42:00,17.0,17.0,-100.00,NNW,328,4.0,5.0,98,0.00,,,-99.99,,2013-01-30 01:42:00,
2013-01-29 18:52:00,17.0,17.0,-100.00,NNW,328,4.0,5.0,98,0.00,,,-99.99,,2013-01-30 01:52:00,
2013-01-29 19:02:00,17.0,17.0,-100.00,NNW,328,4.0,5.0,98,0.00,,,-99.99,,2013-01-30 02:02:00,
2013-01-29 19:12:00,17.0,17.0,-100.00,NNW,330,5.0,7.0,98,0.00,,,-99.99,,2013-01-30 02:12:00,
2013-01-29 19:21:00,17.0,17.0,-100.00,NNW,336,4.0,6.0,98,0.00,,,-99.99,,2013-01-30 02:21:00,
2013-01-29 19:33:00,17.0,17.0,-100.00,NNW,336,4.0,6.0,98,0.00,,,-99.99,,2013-01-30 02:33:00,
2013-01-29 19:42:00,17.0,17.0,-100.00,NNW,332,4.0,8.0,99,0.00,,,-99.99,,2013-01-30 02:42:00,
2013-01-29 19:53:00,17.0,17.0,-100.00,NW,308,2.0,6.0,99,0.04,,,-99.99,,2013-01-30 02:53:00,
2013-01-29 20:02:00,17.0,17.0,-100.00,NW,308,2.0,6.0,99,0.04,,,-99.99,,2013-01-30 03:02:00,
2013-01-29 20:11:00,18.0,17.0,-100.00,WSW,237,2.0,4.0,99,0.04,,,-99.99,,2013-01-30 03:11:00,
2013-01-29 20:22:00,18.0,18.0,-100.00,West,263,3.0,6.0,99,0.04,,,-99.99,,2013-01-30 03:22:00,
2013-01-29 20:32:00,18.0,18.0,-100.00,West,263,3.0,6.0,99,0.04,,,-99.99,,2013-01-30 03:32:00,
2013-01-29 20:42:00,18.0,18.0,-100.00,WNW,302,4.0,6.0,99,0.00,,,-99.99,,2013-01-30 03:42:00,
2013-01-29 20:52:00,18.0,18.0,-100.00,West,278,5.0,10.0,99,0.04,,,-99.99,,2013-01-30 03:52:00,
2013-01-29 21:02:00,18.0,18.0,-100.00,West,278,5.0,10.0,99,0.04,,,-99.99,,2013-01-30 04:02:00,
2013-01-29 21:11:00,18.0,18.0,-100.00,WSW,256,4.0,6.0,99,0.04,,,-99.99,,2013-01-30 04:11:00,
2013-01-29 21:22:00,18.0,18.0,-100.00,NW,320,5.0,8.0,99,0.00,,,-99.99,,2013-01-30 04:22:00,
2013-01-29 21:32:00,18.0,18.0,-100.00,NW,320,5.0,8.0,99,0.00,,,-99.99,,2013-01-30 04:32:00,
2013-01-29 21:41:00,18.0,18.0,-100.00,WNW,294,2.0,4.0,99,0.04,,,-99.99,,2013-01-30 04:41:00,
2013-01-29 21:52:00,18.0,18.0,-100.00,West,268,2.0,4.0,99,0.00,,,-99.99,,2013-01-30 04:52:00,
2013-01-29 22:03:00,18.0,18.0,-100.00,West,268,2.0,4.0,99,0.00,,,-99.99,,2013-01-30 05:03:00,
2013-01-29 22:11:00,18.0,18.0,-100.00,NNW,332,2.0,4.0,99,0.00,,,-99.99,,2013-01-30 05:11:00,
2013-01-29 22:22:00,18.0,18.0,-100.00,SSE,151,3.0,4.0,99,0.00,,,-99.99,,2013-01-30 05:22:00,
2013-01-29 22:32:00,18.0,18.0,-100.00,SSE,151,3.0,4.0,99,0.00,,,-99.99,,2013-01-30 05:32:00,
2013-01-29 22:42:00,18.0,18.0,-100.00,SE,127,3.0,5.0,99,0.04,,,-99.99,,2013-01-30 05:42:00,
2013-01-29 22:52:00,18.0,18.0,-100.00,SSE,148,4.0,5.0,99,0.00,,,-99.99,,2013-01-30 05:52:00,
2013-01-29 23:02:00,18.0,18.0,-100.00,SSE,148,4.0,5.0,99,0.00,,,-99.99,,2013-01-30 06:02:00,
2013-01-29 23:11:00,19.0,18.0,-100.00,ESE,123,2.0,5.0,99,0.04,,,-99.99,,2013-01-30 06:11:00,
2013-01-29 23:21:00,19.0,18.0,-100.00,SSW,195,3.0,5.0,99,0.04,,,-99.99,,2013-01-30 06:21:00,
2013-01-29 23:31:00,19.0,18.0,-100.00,SSW,195,3.0,5.0,99,0.04,,,-99.99,,2013-01-30 06:31:00,
2013-01-29 23:41:00,19.0,19.0,-100.00,ESE,117,6.0,8.0,99,0.04,,,-99.99,,2013-01-30 06:41:00,
2013-01-29 23:52:00,19.0,19.0,-100.00,SSE,164,4.0,6.0,99,0.00,,,-99.99,,2013-01-30 06:52:00,